sensor_id;sensor_type;location;lat;lon;timestamp;temperature;humidity
5697;DHT22;2873;50.966;7.210;2023-01-16T00:00:18;6.70;99.90
5697;DHT22;2873;50.966;7.210;2023-01-16T00:02:44;6.60;99.90
5697;DHT22;2873;50.966;7.210;2023-01-16T00:05:09;6.60;99.90
5697;DHT22;2873;50.966;7.210;2023-01-16T00:07:35;6.50;99.90
5697;DHT22;2873;50.966;7.210;2023-01-16T00:10:01;6.40;99.90
5697;DHT22;2873;50.966;7.210;2023-01-16T00:12:27;6.50;99.90
5697;DHT22;2873;50.966;7.210;2023-01-16T00:14:53;6.50;99.90
5697;DHT22;2873;50.966;7.210;2023-01-16T00:17:18;6.30;99.90
5697;DHT22;2873;50.966;7.210;2023-01-16T00:19:44;6.30;99.90
5697;DHT22;2873;50.966;7.210;2023-01-16T00:22:10;6.30;99.90
5697;DHT22;2873;50.966;7.210;2023-01-16T00:24:35;6.30;99.90
5697;DHT22;2873;50.966;7.210;2023-01-16T00:27:00;6.30;99.90
5697;DHT22;2873;50.966;7.210;2023-01-16T00:29:26;6.30;99.90
5697;DHT22;2873;50.966;7.210;2023-01-16T00:31:51;6.20;99.90
5697;DHT22;2873;50.966;7.210;2023-01-16T00:34:17;6.20;99.90
5697;DHT22;2873;50.966;7.210;2023-01-16T00:36:43;6.10;99.90
5697;DHT22;2873;50.966;7.210;2023-01-16T00:39:08;6.10;99.90
5697;DHT22;2873;50.966;7.210;2023-01-16T00:41:34;6.10;99.90
5697;DHT22;2873;50.966;7.210;2023-01-16T00:43:59;6.20;99.90
5697;DHT22;2873;50.966;7.210;2023-01-16T00:46:25;6.20;99.90
5697;DHT22;2873;50.966;7.210;2023-01-16T00:48:51;6.20;99.90
5697;DHT22;2873;50.966;7.210;2023-01-16T00:51:16;6.10;99.90
5697;DHT22;2873;50.966;7.210;2023-01-16T00:53:42;6.10;99.90
5697;DHT22;2873;50.966;7.210;2023-01-16T00:56:07;6.00;99.90
5697;DHT22;2873;50.966;7.210;2023-01-16T00:58:33;6.00;99.90
5697;DHT22;2873;50.966;7.210;2023-01-16T01:01:00;6.00;99.90
5697;DHT22;2873;50.966;7.210;2023-01-16T01:03:27;6.10;99.90
5697;DHT22;2873;50.966;7.210;2023-01-16T01:05:53;6.10;99.90
5697;DHT22;2873;50.966;7.210;2023-01-16T01:08:18;6.10;99.90
5697;DHT22;2873;50.966;7.210;2023-01-16T01:10:44;6.10;99.90
5697;DHT22;2873;50.966;7.210;2023-01-16T01:13:10;6.10;99.90
5697;DHT22;2873;50.966;7.210;2023-01-16T01:15:36;6.20;99.90
5697;DHT22;2873;50.966;7.210;2023-01-16T01:18:02;6.20;99.90
5697;DHT22;2873;50.966;7.210;2023-01-16T01:20:28;6.10;99.90
5697;DHT22;2873;50.966;7.210;2023-01-16T01:22:53;6.20;99.90
5697;DHT22;2873;50.966;7.210;2023-01-16T01:25:19;6.30;99.90
5697;DHT22;2873;50.966;7.210;2023-01-16T01:27:45;6.10;99.90
5697;DHT22;2873;50.966;7.210;2023-01-16T01:30:10;6.20;99.90
5697;DHT22;2873;50.966;7.210;2023-01-16T01:32:36;6.00;99.90
5697;DHT22;2873;50.966;7.210;2023-01-16T01:35:06;6.20;99.90
5697;DHT22;2873;50.966;7.210;2023-01-16T01:37:32;6.10;99.90
5697;DHT22;2873;50.966;7.210;2023-01-16T01:39:58;6.20;99.90
5697;DHT22;2873;50.966;7.210;2023-01-16T01:42:23;6.20;99.90
5697;DHT22;2873;50.966;7.210;2023-01-16T01:45:49;6.20;99.90
5697;DHT22;2873;50.966;7.210;2023-01-16T01:48:36;6.00;99.90
5697;DHT22;2873;50.966;7.210;2023-01-16T01:51:11;5.90;99.90
5697;DHT22;2873;50.966;7.210;2023-01-16T01:53:46;5.90;99.90
5697;DHT22;2873;50.966;7.210;2023-01-16T01:56:35;5.90;99.90
5697;DHT22;2873;50.966;7.210;2023-01-16T01:59:08;5.90;99.90
5697;DHT22;2873;50.966;7.210;2023-01-16T02:01:36;5.80;99.90
5697;DHT22;2873;50.966;7.210;2023-01-16T02:04:04;5.70;99.90
5697;DHT22;2873;50.966;7.210;2023-01-16T02:06:41;5.60;99.90
5697;DHT22;2873;50.966;7.210;2023-01-16T02:09:08;5.80;99.90
5697;DHT22;2873;50.966;7.210;2023-01-16T02:11:40;5.90;99.90
5697;DHT22;2873;50.966;7.210;2023-01-16T02:14:09;5.70;99.90
5697;DHT22;2873;50.966;7.210;2023-01-16T02:16:37;5.70;99.90
5697;DHT22;2873;50.966;7.210;2023-01-16T02:28:35;5.70;99.90
5697;DHT22;2873;50.966;7.210;2023-01-16T02:36:46;5.70;99.90
5697;DHT22;2873;50.966;7.210;2023-01-16T02:39:42;5.80;99.90
5697;DHT22;2873;50.966;7.210;2023-01-16T02:42:41;5.80;99.90
5697;DHT22;2873;50.966;7.210;2023-01-16T02:45:21;5.60;99.90
5697;DHT22;2873;50.966;7.210;2023-01-16T02:51:14;5.50;99.90
5697;DHT22;2873;50.966;7.210;2023-01-16T02:54:02;5.50;99.90
5697;DHT22;2873;50.966;7.210;2023-01-16T02:56:43;5.50;99.90
5697;DHT22;2873;50.966;7.210;2023-01-16T02:59:12;5.50;99.90
5697;DHT22;2873;50.966;7.210;2023-01-16T03:01:38;5.60;99.90
5697;DHT22;2873;50.966;7.210;2023-01-16T03:10:00;5.70;99.90
5697;DHT22;2873;50.966;7.210;2023-01-16T03:16:08;5.70;99.90
5697;DHT22;2873;50.966;7.210;2023-01-16T03:18:33;5.70;99.90
5697;DHT22;2873;50.966;7.210;2023-01-16T03:27:02;5.70;99.90
5697;DHT22;2873;50.966;7.210;2023-01-16T03:29:41;5.60;99.90
5697;DHT22;2873;50.966;7.210;2023-01-16T03:32:12;5.80;99.90
5697;DHT22;2873;50.966;7.210;2023-01-16T03:35:01;5.80;99.90
5697;DHT22;2873;50.966;7.210;2023-01-16T03:37:32;5.90;99.90
5697;DHT22;2873;50.966;7.210;2023-01-16T03:40:08;5.90;99.90
5697;DHT22;2873;50.966;7.210;2023-01-16T03:42:38;5.90;99.90
5697;DHT22;2873;50.966;7.210;2023-01-16T03:45:11;5.90;99.90
5697;DHT22;2873;50.966;7.210;2023-01-16T03:47:43;6.00;99.90
5697;DHT22;2873;50.966;7.210;2023-01-16T03:50:12;6.10;99.90
5697;DHT22;2873;50.966;7.210;2023-01-16T03:52:42;6.10;99.90
5697;DHT22;2873;50.966;7.210;2023-01-16T03:57:44;6.10;99.90
5697;DHT22;2873;50.966;7.210;2023-01-16T04:00:10;6.10;99.90
5697;DHT22;2873;50.966;7.210;2023-01-16T04:03:02;6.00;99.90
5697;DHT22;2873;50.966;7.210;2023-01-16T04:05:38;6.00;99.90
5697;DHT22;2873;50.966;7.210;2023-01-16T04:08:13;5.90;99.90
5697;DHT22;2873;50.966;7.210;2023-01-16T04:10:43;5.70;99.90
5697;DHT22;2873;50.966;7.210;2023-01-16T04:13:13;5.80;99.90
5697;DHT22;2873;50.966;7.210;2023-01-16T04:15:43;5.90;99.90
5697;DHT22;2873;50.966;7.210;2023-01-16T04:18:10;5.80;99.90
5697;DHT22;2873;50.966;7.210;2023-01-16T04:20:36;5.80;99.90
5697;DHT22;2873;50.966;7.210;2023-01-16T04:23:03;5.70;99.90
5697;DHT22;2873;50.966;7.210;2023-01-16T04:25:29;5.80;99.90
5697;DHT22;2873;50.966;7.210;2023-01-16T04:27:54;5.70;99.90
5697;DHT22;2873;50.966;7.210;2023-01-16T04:30:20;5.80;99.90
5697;DHT22;2873;50.966;7.210;2023-01-16T04:32:45;5.90;99.90
5697;DHT22;2873;50.966;7.210;2023-01-16T04:35:11;5.90;99.90
5697;DHT22;2873;50.966;7.210;2023-01-16T04:37:36;5.90;99.90
5697;DHT22;2873;50.966;7.210;2023-01-16T04:40:02;5.90;99.90
5697;DHT22;2873;50.966;7.210;2023-01-16T04:42:28;6.00;99.90
5697;DHT22;2873;50.966;7.210;2023-01-16T04:44:54;6.00;99.90
5697;DHT22;2873;50.966;7.210;2023-01-16T04:47:19;6.00;99.90
5697;DHT22;2873;50.966;7.210;2023-01-16T04:49:45;6.00;99.90
5697;DHT22;2873;50.966;7.210;2023-01-16T04:52:12;6.10;99.90
5697;DHT22;2873;50.966;7.210;2023-01-16T04:54:37;5.90;99.90
5697;DHT22;2873;50.966;7.210;2023-01-16T04:57:03;5.90;99.90
5697;DHT22;2873;50.966;7.210;2023-01-16T04:59:29;5.90;99.90
5697;DHT22;2873;50.966;7.210;2023-01-16T05:01:54;5.90;99.90
5697;DHT22;2873;50.966;7.210;2023-01-16T05:04:20;5.90;99.90
5697;DHT22;2873;50.966;7.210;2023-01-16T05:06:46;5.80;99.90
5697;DHT22;2873;50.966;7.210;2023-01-16T05:09:11;5.80;99.90
5697;DHT22;2873;50.966;7.210;2023-01-16T05:11:37;5.70;99.90
5697;DHT22;2873;50.966;7.210;2023-01-16T05:14:03;5.70;99.90
5697;DHT22;2873;50.966;7.210;2023-01-16T05:16:36;5.80;99.90
5697;DHT22;2873;50.966;7.210;2023-01-16T05:19:02;5.80;99.90
5697;DHT22;2873;50.966;7.210;2023-01-16T05:21:28;5.60;99.90
5697;DHT22;2873;50.966;7.210;2023-01-16T05:23:54;5.70;99.90
5697;DHT22;2873;50.966;7.210;2023-01-16T05:26:20;5.60;99.90
5697;DHT22;2873;50.966;7.210;2023-01-16T05:28:45;5.50;99.90
5697;DHT22;2873;50.966;7.210;2023-01-16T05:31:11;5.70;99.90
5697;DHT22;2873;50.966;7.210;2023-01-16T05:33:36;5.50;99.90
5697;DHT22;2873;50.966;7.210;2023-01-16T05:36:02;5.60;99.90
5697;DHT22;2873;50.966;7.210;2023-01-16T05:38:28;5.60;99.90
5697;DHT22;2873;50.966;7.210;2023-01-16T05:40:53;5.60;99.90
5697;DHT22;2873;50.966;7.210;2023-01-16T05:43:19;5.60;99.90
5697;DHT22;2873;50.966;7.210;2023-01-16T05:45:45;5.70;99.90
5697;DHT22;2873;50.966;7.210;2023-01-16T05:48:10;5.70;99.90
5697;DHT22;2873;50.966;7.210;2023-01-16T05:50:36;5.70;99.90
5697;DHT22;2873;50.966;7.210;2023-01-16T05:53:01;5.70;99.90
5697;DHT22;2873;50.966;7.210;2023-01-16T05:55:27;5.70;99.90
5697;DHT22;2873;50.966;7.210;2023-01-16T05:57:52;5.60;99.90
5697;DHT22;2873;50.966;7.210;2023-01-16T06:00:18;5.60;99.90
5697;DHT22;2873;50.966;7.210;2023-01-16T06:02:44;5.60;99.90
5697;DHT22;2873;50.966;7.210;2023-01-16T06:05:12;5.80;99.90
5697;DHT22;2873;50.966;7.210;2023-01-16T06:07:37;5.70;99.90
5697;DHT22;2873;50.966;7.210;2023-01-16T06:10:03;5.70;99.90
5697;DHT22;2873;50.966;7.210;2023-01-16T06:12:29;5.80;99.90
5697;DHT22;2873;50.966;7.210;2023-01-16T06:14:57;5.80;99.90
5697;DHT22;2873;50.966;7.210;2023-01-16T06:17:23;5.80;99.90
5697;DHT22;2873;50.966;7.210;2023-01-16T06:19:48;5.70;99.90
5697;DHT22;2873;50.966;7.210;2023-01-16T06:22:14;5.70;99.90
5697;DHT22;2873;50.966;7.210;2023-01-16T06:24:40;5.80;99.90
5697;DHT22;2873;50.966;7.210;2023-01-16T06:27:05;5.80;99.90
5697;DHT22;2873;50.966;7.210;2023-01-16T06:29:31;5.90;99.90
5697;DHT22;2873;50.966;7.210;2023-01-16T06:31:56;5.80;99.90
5697;DHT22;2873;50.966;7.210;2023-01-16T06:34:22;5.80;99.90
5697;DHT22;2873;50.966;7.210;2023-01-16T06:36:48;5.90;99.90
5697;DHT22;2873;50.966;7.210;2023-01-16T06:39:14;5.90;99.90
5697;DHT22;2873;50.966;7.210;2023-01-16T06:41:40;5.90;99.90
5697;DHT22;2873;50.966;7.210;2023-01-16T06:44:06;5.80;99.90
5697;DHT22;2873;50.966;7.210;2023-01-16T06:46:32;5.80;99.90
5697;DHT22;2873;50.966;7.210;2023-01-16T06:48:57;6.00;99.90
5697;DHT22;2873;50.966;7.210;2023-01-16T06:51:23;5.80;99.90
5697;DHT22;2873;50.966;7.210;2023-01-16T06:53:48;5.90;99.90
5697;DHT22;2873;50.966;7.210;2023-01-16T06:56:14;5.80;99.90
5697;DHT22;2873;50.966;7.210;2023-01-16T06:58:40;6.00;99.90
5697;DHT22;2873;50.966;7.210;2023-01-16T07:01:05;5.80;99.90
5697;DHT22;2873;50.966;7.210;2023-01-16T07:03:32;5.80;99.90
5697;DHT22;2873;50.966;7.210;2023-01-16T07:05:57;5.80;99.90
5697;DHT22;2873;50.966;7.210;2023-01-16T07:08:23;5.80;99.90
5697;DHT22;2873;50.966;7.210;2023-01-16T07:10:48;5.80;99.90
5697;DHT22;2873;50.966;7.210;2023-01-16T07:13:14;5.70;99.90
5697;DHT22;2873;50.966;7.210;2023-01-16T07:15:46;5.80;99.90
5697;DHT22;2873;50.966;7.210;2023-01-16T07:18:31;5.90;99.90
5697;DHT22;2873;50.966;7.210;2023-01-16T07:21:19;5.90;99.90
5697;DHT22;2873;50.966;7.210;2023-01-16T07:24:11;5.80;99.90
5697;DHT22;2873;50.966;7.210;2023-01-16T07:26:40;5.90;99.90
5697;DHT22;2873;50.966;7.210;2023-01-16T07:29:07;5.80;99.90
5697;DHT22;2873;50.966;7.210;2023-01-16T07:31:33;5.80;99.90
5697;DHT22;2873;50.966;7.210;2023-01-16T07:33:59;5.90;99.90
5697;DHT22;2873;50.966;7.210;2023-01-16T07:36:25;5.90;99.90
5697;DHT22;2873;50.966;7.210;2023-01-16T07:38:50;5.90;99.90
5697;DHT22;2873;50.966;7.210;2023-01-16T07:41:16;5.90;99.90
5697;DHT22;2873;50.966;7.210;2023-01-16T07:43:42;6.00;99.90
5697;DHT22;2873;50.966;7.210;2023-01-16T07:46:07;6.00;99.90
5697;DHT22;2873;50.966;7.210;2023-01-16T07:48:33;5.90;99.90
5697;DHT22;2873;50.966;7.210;2023-01-16T07:50:59;6.00;99.90
5697;DHT22;2873;50.966;7.210;2023-01-16T07:53:27;5.90;99.90
5697;DHT22;2873;50.966;7.210;2023-01-16T07:55:56;6.00;99.90
5697;DHT22;2873;50.966;7.210;2023-01-16T07:58:22;5.90;99.90
5697;DHT22;2873;50.966;7.210;2023-01-16T08:00:48;6.10;99.90
5697;DHT22;2873;50.966;7.210;2023-01-16T08:03:14;6.20;99.90
5697;DHT22;2873;50.966;7.210;2023-01-16T08:05:41;6.10;99.90
5697;DHT22;2873;50.966;7.210;2023-01-16T08:08:09;6.20;99.90
5697;DHT22;2873;50.966;7.210;2023-01-16T08:10:35;6.30;99.90
5697;DHT22;2873;50.966;7.210;2023-01-16T08:13:00;6.20;99.90
5697;DHT22;2873;50.966;7.210;2023-01-16T08:15:26;6.20;99.90
5697;DHT22;2873;50.966;7.210;2023-01-16T08:17:51;6.10;99.90
5697;DHT22;2873;50.966;7.210;2023-01-16T08:20:17;6.10;99.90
5697;DHT22;2873;50.966;7.210;2023-01-16T08:22:47;6.00;99.90
5697;DHT22;2873;50.966;7.210;2023-01-16T08:25:14;5.80;99.90
5697;DHT22;2873;50.966;7.210;2023-01-16T08:27:40;5.90;99.90
5697;DHT22;2873;50.966;7.210;2023-01-16T08:30:07;6.00;99.90
5697;DHT22;2873;50.966;7.210;2023-01-16T08:32:33;5.90;99.90
5697;DHT22;2873;50.966;7.210;2023-01-16T08:34:59;6.00;99.90
5697;DHT22;2873;50.966;7.210;2023-01-16T08:37:24;6.00;99.90
5697;DHT22;2873;50.966;7.210;2023-01-16T08:39:50;5.90;99.90
5697;DHT22;2873;50.966;7.210;2023-01-16T08:42:15;5.90;99.90
5697;DHT22;2873;50.966;7.210;2023-01-16T08:44:59;5.80;99.90
5697;DHT22;2873;50.966;7.210;2023-01-16T08:47:44;5.90;99.90
5697;DHT22;2873;50.966;7.210;2023-01-16T08:50:28;5.90;99.90
5697;DHT22;2873;50.966;7.210;2023-01-16T08:53:13;5.70;99.90
5697;DHT22;2873;50.966;7.210;2023-01-16T08:55:38;5.80;99.90
5697;DHT22;2873;50.966;7.210;2023-01-16T08:58:05;5.80;99.90
5697;DHT22;2873;50.966;7.210;2023-01-16T09:00:30;5.90;99.90
5697;DHT22;2873;50.966;7.210;2023-01-16T09:02:56;5.70;99.90
5697;DHT22;2873;50.966;7.210;2023-01-16T09:05:25;5.70;99.90
5697;DHT22;2873;50.966;7.210;2023-01-16T09:07:50;5.70;99.90
5697;DHT22;2873;50.966;7.210;2023-01-16T09:10:16;5.80;99.90
5697;DHT22;2873;50.966;7.210;2023-01-16T09:12:42;5.70;99.90
5697;DHT22;2873;50.966;7.210;2023-01-16T09:15:26;5.50;99.90
5697;DHT22;2873;50.966;7.210;2023-01-16T09:17:52;5.60;99.90
5697;DHT22;2873;50.966;7.210;2023-01-16T09:20:17;5.60;99.90
5697;DHT22;2873;50.966;7.210;2023-01-16T09:22:43;5.70;99.90
5697;DHT22;2873;50.966;7.210;2023-01-16T09:25:09;5.40;99.90
5697;DHT22;2873;50.966;7.210;2023-01-16T09:27:35;5.50;99.90
5697;DHT22;2873;50.966;7.210;2023-01-16T09:30:00;5.50;99.90
5697;DHT22;2873;50.966;7.210;2023-01-16T09:32:26;5.40;99.90
5697;DHT22;2873;50.966;7.210;2023-01-16T09:34:52;5.40;99.90
5697;DHT22;2873;50.966;7.210;2023-01-16T09:37:17;5.40;99.90
5697;DHT22;2873;50.966;7.210;2023-01-16T09:39:43;5.60;99.90
5697;DHT22;2873;50.966;7.210;2023-01-16T09:45:13;5.40;99.90
5697;DHT22;2873;50.966;7.210;2023-01-16T09:47:41;5.40;99.90
5697;DHT22;2873;50.966;7.210;2023-01-16T09:50:30;5.50;99.90
5697;DHT22;2873;50.966;7.210;2023-01-16T09:52:59;5.50;99.90
5697;DHT22;2873;50.966;7.210;2023-01-16T09:55:46;5.40;99.90
5697;DHT22;2873;50.966;7.210;2023-01-16T09:58:32;5.40;99.90
5697;DHT22;2873;50.966;7.210;2023-01-16T10:01:11;5.40;99.90
5697;DHT22;2873;50.966;7.210;2023-01-16T10:03:39;5.40;99.90
5697;DHT22;2873;50.966;7.210;2023-01-16T10:06:26;5.40;99.90
5697;DHT22;2873;50.966;7.210;2023-01-16T10:11:43;5.30;99.90
5697;DHT22;2873;50.966;7.210;2023-01-16T10:17:14;5.40;99.90
5697;DHT22;2873;50.966;7.210;2023-01-16T10:23:00;5.40;99.90
5697;DHT22;2873;50.966;7.210;2023-01-16T10:25:37;5.30;99.90
5697;DHT22;2873;50.966;7.210;2023-01-16T10:28:41;5.40;99.90
5697;DHT22;2873;50.966;7.210;2023-01-16T10:31:20;5.50;99.90
5697;DHT22;2873;50.966;7.210;2023-01-16T10:33:56;5.50;99.90
5697;DHT22;2873;50.966;7.210;2023-01-16T10:36:32;5.40;99.90
5697;DHT22;2873;50.966;7.210;2023-01-16T10:39:00;5.30;99.90
5697;DHT22;2873;50.966;7.210;2023-01-16T10:41:30;5.40;99.90
5697;DHT22;2873;50.966;7.210;2023-01-16T10:47:10;5.40;99.90
5697;DHT22;2873;50.966;7.210;2023-01-16T10:49:54;5.30;99.90
5697;DHT22;2873;50.966;7.210;2023-01-16T10:52:19;5.30;99.90
5697;DHT22;2873;50.966;7.210;2023-01-16T10:54:45;5.20;99.90
5697;DHT22;2873;50.966;7.210;2023-01-16T10:57:18;5.40;99.90
5697;DHT22;2873;50.966;7.210;2023-01-16T10:59:46;5.40;99.90
5697;DHT22;2873;50.966;7.210;2023-01-16T11:04:49;5.30;99.90
5697;DHT22;2873;50.966;7.210;2023-01-16T11:07:19;5.50;99.90
5697;DHT22;2873;50.966;7.210;2023-01-16T11:09:46;5.40;99.90
5697;DHT22;2873;50.966;7.210;2023-01-16T11:12:31;5.50;99.90
5697;DHT22;2873;50.966;7.210;2023-01-16T11:15:22;5.70;99.90
5697;DHT22;2873;50.966;7.210;2023-01-16T11:18:22;5.70;99.90
5697;DHT22;2873;50.966;7.210;2023-01-16T11:20:53;5.80;99.90
5697;DHT22;2873;50.966;7.210;2023-01-16T11:23:24;5.70;99.90
5697;DHT22;2873;50.966;7.210;2023-01-16T11:25:53;5.70;99.90
5697;DHT22;2873;50.966;7.210;2023-01-16T11:28:28;5.70;99.90
5697;DHT22;2873;50.966;7.210;2023-01-16T11:31:41;5.70;99.90
5697;DHT22;2873;50.966;7.210;2023-01-16T11:33:45;5.80;99.90
5697;DHT22;2873;50.966;7.210;2023-01-16T11:36:16;5.80;99.90
5697;DHT22;2873;50.966;7.210;2023-01-16T11:38:44;5.80;99.90
5697;DHT22;2873;50.966;7.210;2023-01-16T11:41:10;5.90;99.90
5697;DHT22;2873;50.966;7.210;2023-01-16T11:43:36;5.80;99.90
5697;DHT22;2873;50.966;7.210;2023-01-16T11:46:31;5.70;99.90
5697;DHT22;2873;50.966;7.210;2023-01-16T11:49:24;5.80;99.90
5697;DHT22;2873;50.966;7.210;2023-01-16T11:51:53;6.00;99.90
5697;DHT22;2873;50.966;7.210;2023-01-16T11:54:25;5.70;99.90
5697;DHT22;2873;50.966;7.210;2023-01-16T11:57:19;5.90;99.90
5697;DHT22;2873;50.966;7.210;2023-01-16T12:00:08;6.00;99.90
5697;DHT22;2873;50.966;7.210;2023-01-16T12:02:51;6.10;99.90
5697;DHT22;2873;50.966;7.210;2023-01-16T12:05:45;6.10;99.90
5697;DHT22;2873;50.966;7.210;2023-01-16T12:11:10;6.10;99.90
5697;DHT22;2873;50.966;7.210;2023-01-16T12:13:57;6.00;99.90
5697;DHT22;2873;50.966;7.210;2023-01-16T12:16:57;5.90;99.90
5697;DHT22;2873;50.966;7.210;2023-01-16T12:22:50;5.80;99.90
5697;DHT22;2873;50.966;7.210;2023-01-16T12:25:31;6.00;99.90
5697;DHT22;2873;50.966;7.210;2023-01-16T12:31:19;5.90;99.90
5697;DHT22;2873;50.966;7.210;2023-01-16T12:34:32;5.80;99.90
5697;DHT22;2873;50.966;7.210;2023-01-16T12:37:12;5.80;99.90
5697;DHT22;2873;50.966;7.210;2023-01-16T12:42:49;5.90;99.90
5697;DHT22;2873;50.966;7.210;2023-01-16T12:45:48;6.00;99.90
5697;DHT22;2873;50.966;7.210;2023-01-16T12:59:20;5.90;99.90
5697;DHT22;2873;50.966;7.210;2023-01-16T13:01:51;5.80;99.90
5697;DHT22;2873;50.966;7.210;2023-01-16T13:04:44;5.90;99.90
5697;DHT22;2873;50.966;7.210;2023-01-16T13:07:16;5.90;99.90
5697;DHT22;2873;50.966;7.210;2023-01-16T13:09:51;5.80;99.90
5697;DHT22;2873;50.966;7.210;2023-01-16T13:12:39;5.70;99.90
5697;DHT22;2873;50.966;7.210;2023-01-16T13:15:35;5.80;99.90
5697;DHT22;2873;50.966;7.210;2023-01-16T13:18:03;5.70;99.90
5697;DHT22;2873;50.966;7.210;2023-01-16T13:20:31;5.70;99.90
5697;DHT22;2873;50.966;7.210;2023-01-16T13:23:26;5.80;99.90
5697;DHT22;2873;50.966;7.210;2023-01-16T13:25:58;5.80;99.90
5697;DHT22;2873;50.966;7.210;2023-01-16T13:28:51;5.80;99.90
5697;DHT22;2873;50.966;7.210;2023-01-16T13:31:24;5.90;99.90
5697;DHT22;2873;50.966;7.210;2023-01-16T13:33:56;5.90;99.90
5697;DHT22;2873;50.966;7.210;2023-01-16T13:40:04;5.80;99.90
5697;DHT22;2873;50.966;7.210;2023-01-16T13:42:35;5.90;99.90
5697;DHT22;2873;50.966;7.210;2023-01-16T13:45:09;5.90;99.90
5697;DHT22;2873;50.966;7.210;2023-01-16T13:47:59;5.80;99.90
5697;DHT22;2873;50.966;7.210;2023-01-16T13:50:30;5.90;99.90
5697;DHT22;2873;50.966;7.210;2023-01-16T13:53:00;5.90;99.90
5697;DHT22;2873;50.966;7.210;2023-01-16T13:55:33;6.00;99.90
5697;DHT22;2873;50.966;7.210;2023-01-16T13:58:21;6.00;99.90
5697;DHT22;2873;50.966;7.210;2023-01-16T14:00:56;6.00;99.90
5697;DHT22;2873;50.966;7.210;2023-01-16T14:03:25;6.00;99.90
5697;DHT22;2873;50.966;7.210;2023-01-16T14:05:53;6.00;99.90
5697;DHT22;2873;50.966;7.210;2023-01-16T14:08:22;6.00;99.90
5697;DHT22;2873;50.966;7.210;2023-01-16T14:11:16;6.00;99.90
5697;DHT22;2873;50.966;7.210;2023-01-16T14:14:15;6.00;99.90
5697;DHT22;2873;50.966;7.210;2023-01-16T14:16:36;5.90;99.90
5697;DHT22;2873;50.966;7.210;2023-01-16T14:21:43;5.90;99.90
5697;DHT22;2873;50.966;7.210;2023-01-16T14:24:28;5.80;99.90
5697;DHT22;2873;50.966;7.210;2023-01-16T14:27:02;6.00;99.90
5697;DHT22;2873;50.966;7.210;2023-01-16T14:29:37;5.90;99.90
5697;DHT22;2873;50.966;7.210;2023-01-16T14:34:50;5.90;99.90
5697;DHT22;2873;50.966;7.210;2023-01-16T14:39:53;5.80;99.90
5697;DHT22;2873;50.966;7.210;2023-01-16T14:45:24;5.70;99.90
5697;DHT22;2873;50.966;7.210;2023-01-16T14:56:47;6.10;99.90
5697;DHT22;2873;50.966;7.210;2023-01-16T14:59:17;6.00;99.90
5697;DHT22;2873;50.966;7.210;2023-01-16T15:02:17;6.10;99.90
5697;DHT22;2873;50.966;7.210;2023-01-16T15:07:36;6.10;99.90
5697;DHT22;2873;50.966;7.210;2023-01-16T15:10:09;6.10;99.90
5697;DHT22;2873;50.966;7.210;2023-01-16T15:12:41;6.10;99.90
5697;DHT22;2873;50.966;7.210;2023-01-16T15:15:20;6.00;99.90
5697;DHT22;2873;50.966;7.210;2023-01-16T15:17:46;6.10;99.90
5697;DHT22;2873;50.966;7.210;2023-01-16T15:20:34;6.10;99.90
5697;DHT22;2873;50.966;7.210;2023-01-16T15:23:27;6.10;99.90
5697;DHT22;2873;50.966;7.210;2023-01-16T15:31:20;6.20;99.90
5697;DHT22;2873;50.966;7.210;2023-01-16T15:34:02;6.10;99.90
5697;DHT22;2873;50.966;7.210;2023-01-16T15:36:37;6.10;99.90
5697;DHT22;2873;50.966;7.210;2023-01-16T15:39:19;6.30;99.90
5697;DHT22;2873;50.966;7.210;2023-01-16T15:41:50;6.10;99.90
5697;DHT22;2873;50.966;7.210;2023-01-16T15:44:39;6.30;99.90
5697;DHT22;2873;50.966;7.210;2023-01-16T15:53:16;6.20;99.90
5697;DHT22;2873;50.966;7.210;2023-01-16T15:55:45;6.30;99.90
5697;DHT22;2873;50.966;7.210;2023-01-16T15:58:18;6.20;99.90
5697;DHT22;2873;50.966;7.210;2023-01-16T16:00:44;6.30;99.90
5697;DHT22;2873;50.966;7.210;2023-01-16T16:03:20;6.30;99.90
5697;DHT22;2873;50.966;7.210;2023-01-16T16:06:02;6.20;99.90
5697;DHT22;2873;50.966;7.210;2023-01-16T16:08:32;6.30;99.90
5697;DHT22;2873;50.966;7.210;2023-01-16T16:11:01;6.30;99.90
5697;DHT22;2873;50.966;7.210;2023-01-16T16:13:47;6.30;99.90
5697;DHT22;2873;50.966;7.210;2023-01-16T16:16:18;6.20;99.90
5697;DHT22;2873;50.966;7.210;2023-01-16T16:19:03;6.30;99.90
5697;DHT22;2873;50.966;7.210;2023-01-16T16:21:47;6.20;99.90
5697;DHT22;2873;50.966;7.210;2023-01-16T16:24:34;6.30;99.90
5697;DHT22;2873;50.966;7.210;2023-01-16T16:27:12;6.20;99.90
5697;DHT22;2873;50.966;7.210;2023-01-16T16:29:39;6.20;99.90
5697;DHT22;2873;50.966;7.210;2023-01-16T16:32:10;6.20;99.90
5697;DHT22;2873;50.966;7.210;2023-01-16T16:34:49;6.20;99.90
5697;DHT22;2873;50.966;7.210;2023-01-16T16:37:17;6.20;99.90
5697;DHT22;2873;50.966;7.210;2023-01-16T16:47:32;6.10;99.90
5697;DHT22;2873;50.966;7.210;2023-01-16T16:49:58;6.10;99.90
5697;DHT22;2873;50.966;7.210;2023-01-16T16:52:34;6.10;99.90
5697;DHT22;2873;50.966;7.210;2023-01-16T16:55:26;6.10;99.90
5697;DHT22;2873;50.966;7.210;2023-01-16T16:57:52;6.10;99.90
5697;DHT22;2873;50.966;7.210;2023-01-16T17:00:18;6.00;99.90
5697;DHT22;2873;50.966;7.210;2023-01-16T17:02:49;6.10;99.90
5697;DHT22;2873;50.966;7.210;2023-01-16T17:05:16;6.10;99.90
5697;DHT22;2873;50.966;7.210;2023-01-16T17:07:49;6.00;99.90
5697;DHT22;2873;50.966;7.210;2023-01-16T17:10:17;6.10;99.90
5697;DHT22;2873;50.966;7.210;2023-01-16T17:12:43;6.00;99.90
5697;DHT22;2873;50.966;7.210;2023-01-16T17:15:09;6.10;99.90
5697;DHT22;2873;50.966;7.210;2023-01-16T17:17:38;6.00;99.90
5697;DHT22;2873;50.966;7.210;2023-01-16T17:20:21;6.10;99.90
5697;DHT22;2873;50.966;7.210;2023-01-16T17:22:48;5.90;99.90
5697;DHT22;2873;50.966;7.210;2023-01-16T17:25:15;5.80;99.90
5697;DHT22;2873;50.966;7.210;2023-01-16T17:27:53;5.90;99.90
5697;DHT22;2873;50.966;7.210;2023-01-16T17:30:21;6.00;99.90
5697;DHT22;2873;50.966;7.210;2023-01-16T17:33:11;5.90;99.90
5697;DHT22;2873;50.966;7.210;2023-01-16T17:35:40;5.90;99.90
5697;DHT22;2873;50.966;7.210;2023-01-16T17:38:15;5.90;99.90
5697;DHT22;2873;50.966;7.210;2023-01-16T17:40:41;5.90;99.90
5697;DHT22;2873;50.966;7.210;2023-01-16T17:43:15;5.90;99.90
5697;DHT22;2873;50.966;7.210;2023-01-16T17:46:00;5.90;99.90
5697;DHT22;2873;50.966;7.210;2023-01-16T17:48:28;5.80;99.90
5697;DHT22;2873;50.966;7.210;2023-01-16T17:50:55;5.80;99.90
5697;DHT22;2873;50.966;7.210;2023-01-16T17:53:23;5.80;99.90
5697;DHT22;2873;50.966;7.210;2023-01-16T17:55:51;5.70;99.90
5697;DHT22;2873;50.966;7.210;2023-01-16T17:58:18;5.70;99.90
5697;DHT22;2873;50.966;7.210;2023-01-16T18:00:55;5.60;99.90
5697;DHT22;2873;50.966;7.210;2023-01-16T18:03:20;5.70;99.90
5697;DHT22;2873;50.966;7.210;2023-01-16T18:05:46;5.70;99.90
5697;DHT22;2873;50.966;7.210;2023-01-16T18:08:12;5.70;99.90
5697;DHT22;2873;50.966;7.210;2023-01-16T18:10:39;5.80;99.90
5697;DHT22;2873;50.966;7.210;2023-01-16T18:13:05;5.70;99.90
5697;DHT22;2873;50.966;7.210;2023-01-16T18:15:49;5.70;99.90
5697;DHT22;2873;50.966;7.210;2023-01-16T18:18:33;5.70;99.90
5697;DHT22;2873;50.966;7.210;2023-01-16T18:20:59;5.80;99.90
5697;DHT22;2873;50.966;7.210;2023-01-16T18:23:50;5.90;99.90
5697;DHT22;2873;50.966;7.210;2023-01-16T18:26:16;6.00;99.90
5697;DHT22;2873;50.966;7.210;2023-01-16T18:28:41;6.00;99.90
5697;DHT22;2873;50.966;7.210;2023-01-16T18:31:07;6.10;99.90
5697;DHT22;2873;50.966;7.210;2023-01-16T18:33:33;6.10;99.90
5697;DHT22;2873;50.966;7.210;2023-01-16T18:36:03;6.20;99.90
5697;DHT22;2873;50.966;7.210;2023-01-16T18:38:31;6.20;99.90
5697;DHT22;2873;50.966;7.210;2023-01-16T18:41:15;6.10;99.90
5697;DHT22;2873;50.966;7.210;2023-01-16T18:43:59;6.00;99.90
5697;DHT22;2873;50.966;7.210;2023-01-16T18:46:43;6.00;99.90
5697;DHT22;2873;50.966;7.210;2023-01-16T18:49:27;6.10;99.90